Time,TemperatureF,DewpointF,PressureIn,WindDirection,WindDirectionDegrees,WindSpeedMPH,WindSpeedGustMPH,Humidity,HourlyPrecipIn,Conditions,Clouds,dailyrainin,SoftwareType,DateUTC
2013-02-16 00:08:00,52.8,46.0,30.09,NW,311,8.0,14.0,79,0.00,,,0.00,weatherlink.com 1.10,2013-02-16 06:08:00,
2013-02-16 00:23:00,52.0,45.0,30.08,NW,323,5.0,17.0,78,0.00,,,0.00,weatherlink.com 1.10,2013-02-16 06:23:00,
2013-02-16 00:39:00,51.6,44.0,30.08,NE,44,10.0,14.0,76,0.00,,,0.00,weatherlink.com 1.10,2013-02-16 06:39:00,
2013-02-16 00:53:00,51.4,44.0,30.08,North,1,9.0,13.0,75,0.00,,,0.00,weatherlink.com 1.10,2013-02-16 06:53:00,
2013-02-16 01:08:00,51.1,43.0,30.08,WNW,297,5.0,12.0,74,0.00,,,0.00,weatherlink.com 1.10,2013-02-16 07:08:00,
2013-02-16 01:23:00,50.7,43.0,30.08,NNW,330,8.0,13.0,74,0.00,,,0.00,weatherlink.com 1.10,2013-02-16 07:23:00,
2013-02-16 01:38:00,50.5,43.0,30.07,NNE,27,4.0,13.0,74,0.00,,,0.00,weatherlink.com 1.10,2013-02-16 07:38:00,
2013-02-16 01:54:00,50.3,42.0,30.08,WNW,301,5.0,11.0,74,0.00,,,0.00,weatherlink.com 1.10,2013-02-16 07:54:00,
2013-02-16 02:09:00,50.0,42.0,30.08,North,9,9.0,11.0,74,0.00,,,0.00,weatherlink.com 1.10,2013-02-16 08:09:00,
2013-02-16 02:24:00,49.9,42.0,30.08,NNW,333,9.0,11.0,74,0.00,,,0.00,weatherlink.com 1.10,2013-02-16 08:24:00,
2013-02-16 02:39:00,49.7,42.0,30.08,NE,37,3.0,11.0,74,0.00,,,0.00,weatherlink.com 1.10,2013-02-16 08:39:00,
2013-02-16 02:54:00,49.5,42.0,30.07,ENE,73,9.0,12.0,75,0.00,,,0.00,weatherlink.com 1.10,2013-02-16 08:54:00,
2013-02-16 03:09:00,49.3,42.0,30.07,NW,315,7.0,13.0,75,0.00,,,0.00,weatherlink.com 1.10,2013-02-16 09:09:00,
2013-02-16 03:24:00,49.3,42.0,30.07,NNW,342,5.0,11.0,75,0.00,,,0.00,weatherlink.com 1.10,2013-02-16 09:24:00,
2013-02-16 03:39:00,49.2,42.0,30.08,East,79,4.0,11.0,76,0.00,,,0.00,weatherlink.com 1.10,2013-02-16 09:39:00,
2013-02-16 03:54:00,49.2,42.0,30.08,NNE,27,3.0,11.0,77,0.00,,,0.00,weatherlink.com 1.10,2013-02-16 09:54:00,
2013-02-16 04:09:00,49.2,42.0,30.08,NNW,338,3.0,13.0,77,0.00,,,0.00,weatherlink.com 1.10,2013-02-16 10:09:00,
2013-02-16 04:24:00,49.1,42.0,30.09,NNW,346,7.0,14.0,77,0.00,,,0.00,weatherlink.com 1.10,2013-02-16 10:24:00,
2013-02-16 04:39:00,49.2,42.0,30.09,NW,326,8.0,16.0,76,0.00,,,0.00,weatherlink.com 1.10,2013-02-16 10:39:00,
2013-02-16 04:54:00,49.4,41.0,30.10,NNW,328,7.0,15.0,73,0.00,,,0.00,weatherlink.com 1.10,2013-02-16 10:54:00,
2013-02-16 05:09:00,49.4,41.0,30.10,NW,316,7.0,15.0,72,0.00,,,0.00,weatherlink.com 1.10,2013-02-16 11:09:00,
2013-02-16 05:24:00,49.3,40.0,30.11,NNE,26,4.0,14.0,70,0.00,,,0.00,weatherlink.com 1.10,2013-02-16 11:24:00,
2013-02-16 05:39:00,49.2,39.0,30.12,NW,323,9.0,17.0,67,0.00,,,0.00,weatherlink.com 1.10,2013-02-16 11:39:00,
2013-02-16 05:54:00,49.0,38.0,30.12,NW,323,7.0,17.0,66,0.00,,,0.00,weatherlink.com 1.10,2013-02-16 11:54:00,
2013-02-16 06:10:00,48.4,38.0,30.13,NW,314,8.0,17.0,67,0.00,,,0.00,weatherlink.com 1.10,2013-02-16 12:10:00,
2013-02-16 06:24:00,48.5,37.0,30.13,WNW,291,10.0,16.0,65,0.00,,,0.00,weatherlink.com 1.10,2013-02-16 12:24:00,
2013-02-16 06:40:00,48.3,37.0,30.12,NW,322,5.0,12.0,64,0.00,,,0.00,weatherlink.com 1.10,2013-02-16 12:40:00,
2013-02-16 06:54:00,48.3,37.0,30.13,NW,308,3.0,6.0,65,0.00,,,0.00,weatherlink.com 1.10,2013-02-16 12:54:00,
2013-02-16 07:09:00,48.2,37.0,30.14,WNW,300,3.0,9.0,65,0.00,,,0.00,weatherlink.com 1.10,2013-02-16 13:09:00,
2013-02-16 07:24:00,47.9,37.0,30.14,NW,315,2.0,8.0,66,0.00,,,0.00,weatherlink.com 1.10,2013-02-16 13:24:00,
2013-02-16 07:39:00,47.9,37.0,30.15,West,273,4.0,8.0,67,0.00,,,0.00,weatherlink.com 1.10,2013-02-16 13:39:00,
2013-02-16 07:54:00,48.6,36.0,30.15,NNW,328,5.0,16.0,63,0.00,,,0.00,weatherlink.com 1.10,2013-02-16 13:54:00,
2013-02-16 08:09:00,49.3,37.0,30.16,NW,326,11.0,13.0,63,0.00,,,0.00,weatherlink.com 1.10,2013-02-16 14:09:00,
2013-02-16 08:24:00,49.5,37.0,30.17,NW,323,6.0,17.0,62,0.00,,,0.00,weatherlink.com 1.10,2013-02-16 14:24:00,
2013-02-16 08:40:00,49.6,37.0,30.17,NW,318,9.0,19.0,62,0.00,,,0.00,weatherlink.com 1.10,2013-02-16 14:40:00,
2013-02-16 08:54:00,49.9,37.0,30.17,North,359,16.0,20.0,61,0.00,,,0.00,weatherlink.com 1.10,2013-02-16 14:54:00,
2013-02-16 09:10:00,50.5,36.0,30.18,NW,312,10.0,19.0,58,0.00,,,0.00,weatherlink.com 1.10,2013-02-16 15:10:00,
2013-02-16 09:25:00,50.7,35.0,30.18,NW,311,11.0,20.0,56,0.00,,,0.00,weatherlink.com 1.10,2013-02-16 15:25:00,
2013-02-16 09:40:00,50.8,34.0,30.19,NNW,328,7.0,24.0,54,0.00,,,0.00,weatherlink.com 1.10,2013-02-16 15:40:00,
2013-02-16 09:55:00,51.0,34.0,30.18,North,1,12.0,18.0,52,0.00,,,0.00,weatherlink.com 1.10,2013-02-16 15:55:00,
2013-02-16 10:10:00,51.1,33.0,30.18,NW,322,20.0,20.0,50,0.00,,,0.00,weatherlink.com 1.10,2013-02-16 16:10:00,
2013-02-16 10:25:00,51.2,31.0,30.19,WNW,297,10.0,21.0,46,0.00,,,0.00,weatherlink.com 1.10,2013-02-16 16:25:00,
2013-02-16 10:40:00,51.0,30.0,30.18,NW,326,13.0,25.0,45,0.00,,,0.00,weatherlink.com 1.10,2013-02-16 16:40:00,
2013-02-16 10:55:00,51.6,31.0,30.18,NE,39,11.0,21.0,45,0.00,,,0.00,weatherlink.com 1.10,2013-02-16 16:55:00,
2013-02-16 11:10:00,52.1,31.0,30.18,NNW,334,12.0,17.0,44,0.00,,,0.00,weatherlink.com 1.10,2013-02-16 17:10:00,
2013-02-16 11:25:00,52.2,31.0,30.18,NE,47,4.0,16.0,44,0.00,,,0.00,weatherlink.com 1.10,2013-02-16 17:25:00,
2013-02-16 11:40:00,52.4,30.0,30.17,West,266,12.0,20.0,43,0.00,,,0.00,weatherlink.com 1.10,2013-02-16 17:40:00,
2013-02-16 11:55:00,52.0,30.0,30.17,West,280,13.0,23.0,43,0.00,,,0.00,weatherlink.com 1.10,2013-02-16 17:55:00,
2013-02-16 12:10:00,52.6,29.0,30.16,NNE,13,12.0,22.0,41,0.00,,,0.00,weatherlink.com 1.10,2013-02-16 18:10:00,
2013-02-16 12:25:00,52.4,28.0,30.15,NW,322,8.0,21.0,39,0.00,,,0.00,weatherlink.com 1.10,2013-02-16 18:25:00,
2013-02-16 12:40:00,52.7,29.0,30.14,NE,55,5.0,22.0,40,0.00,,,0.00,weatherlink.com 1.10,2013-02-16 18:40:00,
2013-02-16 12:55:00,53.2,26.0,30.14,NW,325,10.0,21.0,35,0.00,,,0.00,weatherlink.com 1.10,2013-02-16 18:55:00,
2013-02-16 13:10:00,52.9,26.0,30.14,NNW,327,9.0,22.0,36,0.00,,,0.00,weatherlink.com 1.10,2013-02-16 19:10:00,
2013-02-16 13:25:00,52.8,25.0,30.13,NW,315,8.0,23.0,34,0.00,,,0.00,weatherlink.com 1.10,2013-02-16 19:25:00,
2013-02-16 13:40:00,53.3,26.0,30.13,WNW,283,12.0,23.0,35,0.00,,,0.00,weatherlink.com 1.10,2013-02-16 19:40:00,
2013-02-16 13:55:00,52.6,22.0,30.13,NNW,343,10.0,25.0,30,0.00,,,0.00,weatherlink.com 1.10,2013-02-16 19:55:00,
2013-02-16 14:10:00,53.2,22.0,30.12,NW,326,11.0,25.0,29,0.00,,,0.00,weatherlink.com 1.10,2013-02-16 20:10:00,
2013-02-16 14:25:00,53.4,23.0,30.12,West,259,13.0,24.0,30,0.00,,,0.00,weatherlink.com 1.10,2013-02-16 20:25:00,
2013-02-16 14:40:00,53.4,23.0,30.13,NW,304,13.0,29.0,31,0.00,,,0.00,weatherlink.com 1.10,2013-02-16 20:40:00,
2013-02-16 14:55:00,53.0,23.0,30.13,NW,319,13.0,24.0,31,0.00,,,0.00,weatherlink.com 1.10,2013-02-16 20:55:00,
2013-02-16 15:10:00,53.1,22.0,30.13,North,350,16.0,20.0,30,0.00,,,0.00,weatherlink.com 1.10,2013-02-16 21:10:00,
2013-02-16 15:25:00,52.8,22.0,30.13,NW,323,10.0,25.0,30,0.00,,,0.00,weatherlink.com 1.10,2013-02-16 21:25:00,
2013-02-16 15:40:00,52.9,24.0,30.13,NNW,333,7.0,24.0,32,0.00,,,0.00,weatherlink.com 1.10,2013-02-16 21:40:00,
2013-02-16 15:55:00,52.4,21.0,30.13,WNW,287,10.0,21.0,29,0.00,,,0.00,weatherlink.com 1.10,2013-02-16 21:55:00,
2013-02-16 16:10:00,52.1,20.0,30.13,NNW,339,7.0,20.0,28,0.00,,,0.00,weatherlink.com 1.10,2013-02-16 22:10:00,
2013-02-16 16:25:00,51.8,22.0,30.13,WNW,297,12.0,21.0,31,0.00,,,0.00,weatherlink.com 1.10,2013-02-16 22:25:00,
2013-02-16 16:40:00,51.5,22.0,30.14,West,276,3.0,18.0,31,0.00,,,0.00,weatherlink.com 1.10,2013-02-16 22:40:00,
2013-02-16 16:55:00,50.9,20.0,30.15,NNW,347,11.0,17.0,30,0.00,,,0.00,weatherlink.com 1.10,2013-02-16 22:55:00,
2013-02-16 17:10:00,50.7,21.0,30.15,West,280,10.0,18.0,31,0.00,,,0.00,weatherlink.com 1.10,2013-02-16 23:10:00,
2013-02-16 17:25:00,49.9,20.0,30.16,NW,304,12.0,22.0,31,0.00,,,0.00,weatherlink.com 1.10,2013-02-16 23:25:00,
2013-02-16 17:40:00,49.0,22.0,30.17,WNW,293,7.0,15.0,34,0.00,,,0.00,weatherlink.com 1.10,2013-02-16 23:40:00,
2013-02-16 17:55:00,48.3,22.0,30.18,NW,308,4.0,16.0,36,0.00,,,0.00,weatherlink.com 1.10,2013-02-16 23:55:00,
2013-02-16 18:10:00,47.9,23.0,30.18,WNW,283,7.0,10.0,37,0.00,,,0.00,weatherlink.com 1.10,2013-02-17 00:10:00,
2013-02-16 18:25:00,47.5,23.0,30.20,NW,314,8.0,13.0,38,0.00,,,0.00,weatherlink.com 1.10,2013-02-17 00:25:00,
2013-02-16 18:40:00,46.9,23.0,30.20,North,358,7.0,9.0,39,0.00,,,0.00,weatherlink.com 1.10,2013-02-17 00:40:00,
2013-02-16 18:55:00,46.4,23.0,30.21,NNW,346,7.0,10.0,40,0.00,,,0.00,weatherlink.com 1.10,2013-02-17 00:55:00,
2013-02-16 19:10:00,46.1,23.0,30.22,West,278,4.0,10.0,40,0.00,,,0.00,weatherlink.com 1.10,2013-02-17 01:10:00,
2013-02-16 19:25:00,45.7,22.0,30.23,NNE,12,4.0,10.0,40,0.00,,,0.00,weatherlink.com 1.10,2013-02-17 01:25:00,
2013-02-16 19:40:00,45.3,23.0,30.23,NW,307,4.0,10.0,42,0.00,,,0.00,weatherlink.com 1.10,2013-02-17 01:40:00,
2013-02-16 19:55:00,45.3,23.0,30.24,NW,324,6.0,13.0,41,0.00,,,0.00,weatherlink.com 1.10,2013-02-17 01:55:00,
2013-02-16 20:10:00,45.1,22.0,30.25,NNW,329,8.0,15.0,40,0.00,,,0.00,weatherlink.com 1.10,2013-02-17 02:10:00,
2013-02-16 20:26:00,44.9,23.0,30.26,NW,315,9.0,14.0,42,0.00,,,0.00,weatherlink.com 1.10,2013-02-17 02:26:00,
2013-02-16 20:41:00,44.4,23.0,30.26,NW,318,4.0,11.0,43,0.00,,,0.00,weatherlink.com 1.10,2013-02-17 02:41:00,
2013-02-16 20:56:00,43.9,23.0,30.27,NW,311,6.0,11.0,43,0.00,,,0.00,weatherlink.com 1.10,2013-02-17 02:56:00,
2013-02-16 21:11:00,43.5,23.0,30.27,ENE,68,8.0,10.0,45,0.00,,,0.00,weatherlink.com 1.10,2013-02-17 03:11:00,
2013-02-16 21:26:00,43.1,24.0,30.28,NNE,23,6.0,11.0,47,0.00,,,0.00,weatherlink.com 1.10,2013-02-17 03:26:00,
2013-02-16 21:41:00,43.1,24.0,30.28,NNE,22,2.0,13.0,47,0.00,,,0.00,weatherlink.com 1.10,2013-02-17 03:41:00,
2013-02-16 21:56:00,42.8,23.0,30.29,NW,316,9.0,12.0,46,0.00,,,0.00,weatherlink.com 1.10,2013-02-17 03:56:00,
2013-02-16 22:11:00,42.6,23.0,30.29,WNW,290,5.0,10.0,46,0.00,,,0.00,weatherlink.com 1.10,2013-02-17 04:11:00,
2013-02-16 22:26:00,42.1,23.0,30.29,North,350,6.0,9.0,47,0.00,,,0.00,weatherlink.com 1.10,2013-02-17 04:26:00,
2013-02-16 22:41:00,41.9,23.0,30.29,NNW,338,3.0,9.0,47,0.00,,,0.00,weatherlink.com 1.10,2013-02-17 04:41:00,
2013-02-16 22:56:00,41.6,23.0,30.29,NE,46,3.0,8.0,48,0.00,,,0.00,weatherlink.com 1.10,2013-02-17 04:56:00,
2013-02-16 23:11:00,41.5,23.0,30.29,NNW,336,5.0,8.0,48,0.00,,,0.00,weatherlink.com 1.10,2013-02-17 05:11:00,
2013-02-16 23:26:00,41.1,23.0,30.29,NW,318,3.0,6.0,49,0.00,,,0.00,weatherlink.com 1.10,2013-02-17 05:26:00,
2013-02-16 23:41:00,40.8,24.0,30.30,North,8,3.0,5.0,51,0.00,,,0.00,weatherlink.com 1.10,2013-02-17 05:41:00,
2013-02-16 23:56:00,40.8,23.0,30.30,NNW,337,3.0,6.0,50,0.00,,,0.00,weatherlink.com 1.10,2013-02-17 05:56:00,